createdAt,value
2022-11-13T00:00:06.229Z,99.15
2022-11-13T00:02:35.619Z,99.15
2022-11-13T00:05:02.319Z,99.14
2022-11-13T00:07:28.897Z,99.08
2022-11-13T00:09:55.724Z,99.04
2022-11-13T00:12:22.358Z,99.11
2022-11-13T00:14:49.113Z,99.06
2022-11-13T00:17:15.709Z,99.04
2022-11-13T00:19:42.268Z,99.09
2022-11-13T00:22:08.825Z,99.00
2022-11-13T00:24:35.562Z,99.04
2022-11-13T00:27:02.403Z,99.08
2022-11-13T00:29:29.001Z,98.97
2022-11-13T00:31:55.563Z,99.01
2022-11-13T00:37:08.829Z,99.05
2022-11-13T00:39:35.406Z,99.01
2022-11-13T00:42:02.008Z,99.10
2022-11-13T00:44:28.701Z,99.01
2022-11-13T00:46:55.270Z,99.06
2022-11-13T00:49:21.820Z,99.11
2022-11-13T00:51:48.607Z,99.01
2022-11-13T00:54:15.081Z,98.96
2022-11-13T00:56:41.685Z,98.96
2022-11-13T00:59:08.501Z,98.93
2022-11-13T01:01:35.268Z,98.96
2022-11-13T01:04:01.821Z,98.98
2022-11-13T01:06:28.511Z,98.84
2022-11-13T01:08:57.522Z,98.85
2022-11-13T01:11:26.538Z,98.90
2022-11-13T01:13:53.612Z,98.83
2022-11-13T01:16:23.114Z,98.84
2022-11-13T01:18:50.518Z,98.86
2022-11-13T01:21:22.594Z,98.91
2022-11-13T01:23:49.180Z,98.90
2022-11-13T01:26:24.629Z,98.91
2022-11-13T01:28:51.490Z,98.87
2022-11-13T01:31:21.757Z,98.89
2022-11-13T01:33:49.171Z,98.88
2022-11-13T01:36:19.239Z,98.95
2022-11-13T01:38:46.130Z,98.84
2022-11-13T01:41:23.812Z,98.81
2022-11-13T01:43:52.293Z,98.86
2022-11-13T01:46:35.258Z,98.83
2022-11-13T01:49:20.789Z,98.82
2022-11-13T01:52:19.122Z,98.83
2022-11-13T01:54:50.301Z,98.71
2022-11-13T01:57:17.417Z,98.71
2022-11-13T01:59:50.281Z,98.66
2022-11-13T02:02:17.274Z,98.60
2022-11-13T02:04:44.578Z,97.87
2022-11-13T02:07:16.475Z,97.77
2022-11-13T02:09:52.100Z,97.81
2022-11-13T02:12:28.350Z,97.70
2022-11-13T02:14:57.913Z,97.74
2022-11-13T02:17:30.833Z,97.68
2022-11-13T02:20:00.768Z,97.70
2022-11-13T02:22:41.902Z,97.59
2022-11-13T02:25:09.914Z,97.58
2022-11-13T02:27:42.045Z,97.58
2022-11-13T02:30:27.398Z,97.66
2022-11-13T02:32:58.261Z,97.69
2022-11-13T02:35:32.020Z,97.71
2022-11-13T02:38:04.425Z,97.66
2022-11-13T02:40:32.622Z,97.46
2022-11-13T02:42:59.213Z,97.53
2022-11-13T02:45:25.810Z,97.61
2022-11-13T02:47:52.807Z,97.67
2022-11-13T02:50:19.418Z,97.36
2022-11-13T02:52:46.210Z,97.11
2022-11-13T02:55:13.151Z,96.93
2022-11-13T02:57:39.705Z,96.74
2022-11-13T03:00:10.692Z,96.87
2022-11-13T03:02:41.725Z,96.98
2022-11-13T03:05:13.604Z,97.00
2022-11-13T03:07:41.085Z,97.10
2022-11-13T03:10:09.288Z,97.03
2022-11-13T03:12:36.121Z,97.14
2022-11-13T03:15:04.825Z,97.16
2022-11-13T03:17:32.557Z,97.19
2022-11-13T03:19:59.534Z,96.80
2022-11-13T03:22:26.704Z,96.76
2022-11-13T03:24:53.637Z,96.80
2022-11-13T03:27:20.291Z,96.92
2022-11-13T03:29:47.348Z,96.78
2022-11-13T03:32:14.097Z,96.34
2022-11-13T03:34:40.693Z,96.44
2022-11-13T03:37:07.335Z,96.59
2022-11-13T03:39:34.185Z,95.42
2022-11-13T03:42:00.899Z,95.27
2022-11-13T03:44:27.585Z,95.49
2022-11-13T03:46:54.258Z,95.42
2022-11-13T03:49:20.838Z,95.21
2022-11-13T03:51:47.696Z,95.05
2022-11-13T03:54:14.288Z,92.86
2022-11-13T03:56:40.843Z,92.60
2022-11-13T03:59:07.583Z,92.68
2022-11-13T04:01:34.872Z,92.71
2022-11-13T04:04:01.637Z,92.43
2022-11-13T04:06:28.195Z,92.06
2022-11-13T04:08:54.824Z,91.62
2022-11-13T04:11:21.656Z,91.22
2022-11-13T04:13:48.736Z,90.49
2022-11-13T04:16:15.753Z,90.39
2022-11-13T04:18:42.377Z,90.30
2022-11-13T04:21:09.400Z,89.84
2022-11-13T04:23:36.610Z,89.48
2022-11-13T04:26:03.270Z,89.66
2022-11-13T04:28:30.200Z,89.53
2022-11-13T04:30:57.502Z,89.91
2022-11-13T04:33:24.096Z,90.17
2022-11-13T04:35:50.613Z,89.94
2022-11-13T04:38:17.259Z,90.06
2022-11-13T04:40:44.661Z,90.40
2022-11-13T04:43:11.261Z,90.52
2022-11-13T04:45:37.939Z,90.66
2022-11-13T04:48:04.696Z,90.26
2022-11-13T04:50:32.052Z,90.81
2022-11-13T04:52:59.156Z,90.48
2022-11-13T04:55:25.822Z,90.58
2022-11-13T04:57:55.550Z,90.70
2022-11-13T05:00:23.017Z,90.26
2022-11-13T05:02:49.798Z,90.54
2022-11-13T05:05:16.701Z,90.85
2022-11-13T05:07:43.298Z,90.35
2022-11-13T05:10:10.055Z,89.89
2022-11-13T05:12:36.633Z,89.93
2022-11-13T05:15:04.156Z,89.87
2022-11-13T05:17:30.876Z,89.90
2022-11-13T05:19:57.499Z,90.32
2022-11-13T05:22:24.116Z,90.52
2022-11-13T05:24:50.690Z,91.20
2022-11-13T05:27:17.954Z,91.04
2022-11-13T05:29:45.138Z,91.30
2022-11-13T05:32:11.916Z,90.68
2022-11-13T05:34:38.499Z,90.65
2022-11-13T05:37:05.180Z,90.93
2022-11-13T05:39:31.814Z,90.80
2022-11-13T05:41:58.820Z,90.70
2022-11-13T05:44:25.378Z,91.30
2022-11-13T05:46:52.025Z,91.29
2022-11-13T05:49:18.614Z,90.92
2022-11-13T05:51:45.245Z,90.91
2022-11-13T05:54:11.816Z,90.48
2022-11-13T05:56:38.479Z,90.47
2022-11-13T05:59:05.356Z,90.54
2022-11-13T06:01:40.212Z,90.91
2022-11-13T06:04:07.971Z,90.69
2022-11-13T06:06:35.230Z,90.95
2022-11-13T06:09:04.556Z,90.26
2022-11-13T06:11:31.483Z,90.17
2022-11-13T06:13:59.339Z,90.41
2022-11-13T06:16:33.462Z,90.81
2022-11-13T06:19:02.327Z,90.89
2022-11-13T06:21:31.211Z,90.75
2022-11-13T06:23:59.093Z,90.69
2022-11-13T06:26:28.673Z,90.10
2022-11-13T06:28:55.425Z,90.10
2022-11-13T06:31:28.445Z,90.27
2022-11-13T06:33:55.334Z,90.27
2022-11-13T06:36:24.760Z,90.03
2022-11-13T06:38:51.843Z,90.34
2022-11-13T06:41:20.759Z,90.64
2022-11-13T06:43:48.769Z,90.91
2022-11-13T06:46:21.340Z,90.61
2022-11-13T06:48:48.606Z,90.80
2022-11-13T06:51:21.597Z,90.90
2022-11-13T06:53:48.809Z,91.35
2022-11-13T06:56:16.168Z,91.50
2022-11-13T06:58:43.824Z,91.48
2022-11-13T07:01:19.670Z,91.60
2022-11-13T07:03:46.462Z,91.45
2022-11-13T07:06:16.255Z,90.99
2022-11-13T07:08:43.549Z,91.58
2022-11-13T07:11:16.652Z,91.79
2022-11-13T07:13:44.046Z,91.28
2022-11-13T07:16:19.081Z,91.56
2022-11-13T07:18:53.053Z,91.81
2022-11-13T07:21:19.966Z,91.85
2022-11-13T07:23:48.625Z,91.57
2022-11-13T07:26:15.664Z,91.42
2022-11-13T07:28:42.233Z,91.47
2022-11-13T07:31:11.907Z,91.63
2022-11-13T07:33:38.782Z,91.67
2022-11-13T07:36:05.912Z,91.41
2022-11-13T07:38:32.510Z,91.23
2022-11-13T07:40:59.117Z,91.69
2022-11-13T07:43:26.977Z,92.00
2022-11-13T07:45:56.985Z,91.83
2022-11-13T07:48:24.261Z,92.20
2022-11-13T07:50:51.219Z,92.13
2022-11-13T07:53:18.785Z,91.93
2022-11-13T07:55:45.373Z,91.88
2022-11-13T07:58:12.031Z,92.21
2022-11-13T08:00:39.267Z,92.00
2022-11-13T08:03:12.444Z,92.14
2022-11-13T08:05:39.772Z,92.04
2022-11-13T08:08:07.213Z,92.21
2022-11-13T08:10:34.360Z,92.21
2022-11-13T08:13:06.653Z,92.41
2022-11-13T08:15:34.249Z,92.58
2022-11-13T08:18:03.106Z,92.80
2022-11-13T08:20:31.069Z,92.86
2022-11-13T08:23:00.004Z,92.78
2022-11-13T08:25:28.239Z,92.83
2022-11-13T08:27:55.229Z,93.04
2022-11-13T08:30:23.140Z,93.02
2022-11-13T08:32:50.151Z,93.12
2022-11-13T08:35:19.410Z,93.26
2022-11-13T08:37:46.557Z,93.13
2022-11-13T08:40:13.679Z,93.22
2022-11-13T08:42:40.292Z,93.29
2022-11-13T08:45:08.024Z,93.31
2022-11-13T08:47:34.729Z,93.47
2022-11-13T08:50:01.966Z,93.00
2022-11-13T08:52:28.698Z,92.81
2022-11-13T08:54:55.710Z,92.38
2022-11-13T08:57:22.695Z,92.42
2022-11-13T08:59:49.264Z,92.01
2022-11-13T09:02:16.172Z,91.93
2022-11-13T09:04:43.236Z,92.04
2022-11-13T09:07:10.081Z,92.13
2022-11-13T09:09:37.239Z,92.27
2022-11-13T09:12:04.347Z,92.38
2022-11-13T09:14:30.970Z,92.48
2022-11-13T09:16:57.684Z,92.98
2022-11-13T09:19:25.090Z,92.66
2022-11-13T09:21:52.083Z,92.49
2022-11-13T09:24:18.953Z,92.71
2022-11-13T09:26:45.504Z,92.68
2022-11-13T09:29:12.139Z,92.79
2022-11-13T09:31:40.964Z,92.55
2022-11-13T09:34:08.354Z,92.56
2022-11-13T09:36:35.283Z,91.89
2022-11-13T09:39:02.030Z,92.00
2022-11-13T09:41:33.867Z,91.94
2022-11-13T09:44:06.962Z,91.36
2022-11-13T09:46:49.127Z,91.71
2022-11-13T09:49:36.368Z,91.60
2022-11-13T09:52:10.581Z,91.39
2022-11-13T09:54:38.310Z,90.67
2022-11-13T09:57:41.552Z,90.55
2022-11-13T10:00:14.387Z,90.42
2022-11-13T10:03:33.472Z,90.34
2022-11-13T10:06:27.006Z,90.45
2022-11-13T10:08:58.451Z,90.19
2022-11-13T10:11:37.460Z,89.66
2022-11-13T10:14:48.300Z,89.31
2022-11-13T10:17:19.820Z,89.11
2022-11-13T10:19:58.397Z,89.05
2022-11-13T10:22:33.029Z,88.61
2022-11-13T10:25:10.456Z,88.66
2022-11-13T10:27:37.869Z,88.99
2022-11-13T10:30:13.092Z,88.54
2022-11-13T10:32:39.804Z,88.57
2022-11-13T10:35:06.409Z,88.34
2022-11-13T10:37:54.108Z,87.29
2022-11-13T10:40:28.693Z,87.83
2022-11-13T10:43:05.363Z,87.35
2022-11-13T10:45:32.037Z,86.05
2022-11-13T10:48:04.239Z,86.46
2022-11-13T10:50:32.809Z,86.39
2022-11-13T10:52:59.847Z,85.36
2022-11-13T10:55:40.782Z,85.04
2022-11-13T10:58:16.729Z,85.38
2022-11-13T11:00:47.406Z,85.04
2022-11-13T11:03:19.594Z,84.87
2022-11-13T11:06:04.381Z,84.69
2022-11-13T11:08:35.141Z,84.80
2022-11-13T11:11:35.247Z,84.86
2022-11-13T11:14:25.620Z,84.69
2022-11-13T11:16:54.080Z,84.60
2022-11-13T11:19:27.730Z,85.55
2022-11-13T11:22:22.324Z,85.41
2022-11-13T11:25:00.936Z,84.35
2022-11-13T11:27:37.611Z,84.49
2022-11-13T11:30:18.411Z,84.79
2022-11-13T11:32:51.104Z,84.36
2022-11-13T11:35:21.871Z,83.74
2022-11-13T11:37:59.248Z,84.24
2022-11-13T11:40:30.429Z,84.01
2022-11-13T11:43:32.778Z,83.40
2022-11-13T11:45:59.319Z,82.83
2022-11-13T11:48:28.579Z,83.11
2022-11-13T11:51:18.877Z,82.76
2022-11-13T11:54:22.807Z,82.25
2022-11-13T11:56:53.656Z,82.23
2022-11-13T11:59:33.913Z,82.26
2022-11-13T12:02:06.583Z,82.51
2022-11-13T12:04:39.389Z,82.04
2022-11-13T12:07:16.833Z,81.52
2022-11-13T12:10:08.579Z,81.47
2022-11-13T12:12:35.212Z,82.20
2022-11-13T12:15:04.242Z,82.10
2022-11-13T12:17:53.340Z,82.09
2022-11-13T12:20:51.980Z,81.02
2022-11-13T12:23:30.289Z,80.84
2022-11-13T12:26:05.233Z,80.39
2022-11-13T12:28:42.364Z,79.99
2022-11-13T12:31:21.247Z,80.51
2022-11-13T12:34:13.262Z,79.85
2022-11-13T12:36:40.124Z,79.70
2022-11-13T12:39:32.826Z,79.75
2022-11-13T12:42:25.684Z,79.63
2022-11-13T12:45:25.235Z,80.06
2022-11-13T12:47:52.238Z,79.16
2022-11-13T12:50:31.435Z,78.98
2022-11-13T12:53:09.486Z,78.62
2022-11-13T12:55:38.833Z,78.55
2022-11-13T12:58:32.478Z,78.53
2022-11-13T13:01:06.680Z,77.62
2022-11-13T13:04:00.822Z,78.28
2022-11-13T13:06:39.936Z,77.64
2022-11-13T13:09:09.787Z,77.76
2022-11-13T13:11:45.249Z,77.79
2022-11-13T13:14:11.802Z,77.55
2022-11-13T13:16:38.400Z,78.14
2022-11-13T13:19:30.954Z,77.76
2022-11-13T13:21:57.960Z,77.69
2022-11-13T13:24:32.698Z,77.99
2022-11-13T13:27:00.199Z,78.61
2022-11-13T13:29:28.684Z,78.17
2022-11-13T13:32:27.920Z,78.88
2022-11-13T13:35:15.358Z,78.85
2022-11-13T13:38:00.718Z,78.72
2022-11-13T13:40:45.395Z,77.44
2022-11-13T13:43:40.777Z,77.84
2022-11-13T13:46:15.129Z,76.85
2022-11-13T13:48:45.471Z,77.33
2022-11-13T13:51:17.373Z,77.46
2022-11-13T13:53:44.287Z,78.21
2022-11-13T13:56:13.765Z,77.88
2022-11-13T13:58:41.222Z,78.46
2022-11-13T14:01:19.019Z,78.74
2022-11-13T14:03:46.753Z,79.67
2022-11-13T14:06:24.112Z,79.89
2022-11-13T14:08:50.746Z,80.51
2022-11-13T14:11:26.714Z,81.12
2022-11-13T14:13:53.350Z,81.57
2022-11-13T14:16:19.945Z,81.96
2022-11-13T14:18:46.599Z,82.22
2022-11-13T14:21:24.967Z,82.28
2022-11-13T14:23:53.231Z,82.32
2022-11-13T14:26:20.533Z,82.51
2022-11-13T14:28:55.285Z,83.15
2022-11-13T14:31:29.758Z,83.44
2022-11-13T14:33:59.998Z,83.42
2022-11-13T14:36:29.960Z,83.60
2022-11-13T14:38:58.519Z,83.55
2022-11-13T14:41:28.426Z,84.31
2022-11-13T14:43:55.386Z,84.35
2022-11-13T14:46:35.239Z,84.70
2022-11-13T14:49:02.306Z,85.25
2022-11-13T14:51:33.428Z,85.60
2022-11-13T14:54:07.618Z,85.90
2022-11-13T14:56:43.780Z,85.90
2022-11-13T14:59:19.758Z,86.04
2022-11-13T15:01:57.782Z,86.32
2022-11-13T15:04:25.415Z,86.50
2022-11-13T15:06:56.066Z,86.45
2022-11-13T15:09:24.354Z,86.75
2022-11-13T15:11:51.433Z,87.31
2022-11-13T15:14:20.087Z,87.92
2022-11-13T15:16:48.672Z,88.38
2022-11-13T15:19:31.764Z,88.45
2022-11-13T15:22:25.769Z,88.13
2022-11-13T15:24:45.434Z,88.43
2022-11-13T15:27:18.710Z,88.79
2022-11-13T15:29:45.368Z,89.34
2022-11-13T15:32:13.085Z,89.30
2022-11-13T15:34:40.180Z,89.68
2022-11-13T15:37:14.805Z,89.90
2022-11-13T15:39:41.661Z,90.26
2022-11-13T15:42:18.455Z,90.33
2022-11-13T15:44:45.939Z,90.82
2022-11-13T15:47:26.316Z,90.82
2022-11-13T15:50:12.498Z,90.85
2022-11-13T15:52:42.564Z,90.69
2022-11-13T15:55:17.437Z,90.82
2022-11-13T15:57:44.453Z,90.91
2022-11-13T16:00:17.699Z,91.14
2022-11-13T16:02:44.520Z,91.15
2022-11-13T16:05:11.279Z,91.68
2022-11-13T16:07:41.273Z,91.59
2022-11-13T16:10:10.749Z,91.81
2022-11-13T16:12:37.723Z,91.81
2022-11-13T16:15:04.733Z,92.08
2022-11-13T16:17:39.139Z,92.15
2022-11-13T16:20:07.748Z,92.40
2022-11-13T16:22:35.051Z,92.20
2022-11-13T16:25:01.578Z,91.90
2022-11-13T16:27:31.177Z,92.12
2022-11-13T16:30:00.003Z,92.34
2022-11-13T16:32:30.847Z,92.37
2022-11-13T16:34:57.426Z,92.46
2022-11-13T16:37:24.628Z,92.75
2022-11-13T16:39:51.197Z,92.82
2022-11-13T16:42:17.844Z,92.75
2022-11-13T16:44:44.532Z,92.64
2022-11-13T16:47:23.640Z,92.72
2022-11-13T16:49:50.424Z,92.84
2022-11-13T16:52:18.406Z,92.98
2022-11-13T16:54:45.744Z,93.20
2022-11-13T16:57:14.599Z,93.11
2022-11-13T16:59:41.288Z,93.36
2022-11-13T17:02:14.449Z,93.26
2022-11-13T17:04:41.657Z,93.31
2022-11-13T17:07:12.605Z,93.44
2022-11-13T17:09:41.401Z,93.53
2022-11-13T17:12:09.784Z,93.36
2022-11-13T17:14:36.561Z,93.23
2022-11-13T17:17:10.823Z,93.44
2022-11-13T17:19:43.723Z,93.57
2022-11-13T17:22:11.991Z,93.56
2022-11-13T17:24:39.709Z,93.42
2022-11-13T17:27:07.296Z,93.84
2022-11-13T17:29:34.389Z,94.00
2022-11-13T17:32:01.128Z,93.94
2022-11-13T17:34:28.196Z,93.65
2022-11-13T17:36:54.902Z,93.64
2022-11-13T17:39:21.879Z,93.47
2022-11-13T17:41:50.525Z,93.30
2022-11-13T17:44:17.622Z,93.15
2022-11-13T17:46:44.552Z,93.02
2022-11-13T17:49:11.165Z,93.04
2022-11-13T17:51:37.987Z,93.36
2022-11-13T17:54:05.017Z,93.31
2022-11-13T17:56:31.671Z,93.41
2022-11-13T17:58:58.393Z,93.25
2022-11-13T18:01:25.114Z,93.27
2022-11-13T18:03:56.330Z,92.73
2022-11-13T18:06:23.673Z,92.77
2022-11-13T18:08:50.403Z,92.72
2022-11-13T18:11:20.677Z,92.72
2022-11-13T18:13:48.394Z,92.77
2022-11-13T18:16:20.989Z,92.86
2022-11-13T18:18:50.198Z,92.88
2022-11-13T18:21:23.572Z,92.73
2022-11-13T18:24:00.367Z,92.48
2022-11-13T18:26:29.178Z,92.52
2022-11-13T18:28:56.842Z,92.38
2022-11-13T18:31:23.987Z,92.37
2022-11-13T18:33:51.016Z,92.39
2022-11-13T18:36:18.500Z,92.21
2022-11-13T18:38:45.614Z,92.26
2022-11-13T18:41:15.396Z,91.86
2022-11-13T18:43:46.673Z,91.75
2022-11-13T18:46:18.498Z,91.79
2022-11-13T18:48:46.703Z,91.79
2022-11-13T18:51:19.516Z,91.69
2022-11-13T18:53:50.750Z,91.99
2022-11-13T18:56:21.101Z,91.73
2022-11-13T18:58:49.512Z,91.74
2022-11-13T19:01:22.575Z,91.82
2022-11-13T19:04:22.451Z,91.76
2022-11-13T19:06:40.541Z,91.61
2022-11-13T19:09:11.482Z,91.61
2022-11-13T19:11:38.854Z,91.49
2022-11-13T19:14:06.242Z,91.59
2022-11-13T19:16:35.675Z,91.73
2022-11-13T19:19:05.013Z,92.02
2022-11-13T19:21:34.123Z,92.05
2022-11-13T19:24:02.441Z,91.88
2022-11-13T19:26:29.175Z,91.86
2022-11-13T19:28:56.472Z,91.97
2022-11-13T19:31:25.244Z,91.97
2022-11-13T19:33:59.702Z,92.20
2022-11-13T19:36:28.250Z,92.40
2022-11-13T19:38:55.887Z,92.34
2022-11-13T19:41:23.854Z,92.44
2022-11-13T19:43:50.525Z,92.59
2022-11-13T19:46:19.431Z,92.07
2022-11-13T19:48:47.848Z,92.06
2022-11-13T19:51:24.955Z,92.05
2022-11-13T19:53:56.944Z,92.44
2022-11-13T19:56:25.531Z,92.57
2022-11-13T19:58:52.763Z,92.31
2022-11-13T20:01:22.423Z,92.63
2022-11-13T20:03:57.121Z,92.51
2022-11-13T20:06:24.641Z,92.55
2022-11-13T20:08:51.302Z,92.33
2022-11-13T20:11:17.961Z,92.26
2022-11-13T20:13:44.950Z,92.12
2022-11-13T20:16:13.976Z,91.84
2022-11-13T20:18:42.211Z,91.95
2022-11-13T20:21:09.441Z,92.07
2022-11-13T20:23:36.559Z,91.86
2022-11-13T20:26:06.541Z,91.86
2022-11-13T20:28:34.028Z,91.71
2022-11-13T20:31:19.627Z,91.95
2022-11-13T20:33:47.260Z,91.79
2022-11-13T20:36:15.061Z,91.97
2022-11-13T20:38:44.279Z,91.93
2022-11-13T20:41:11.383Z,92.26
2022-11-13T20:43:38.935Z,92.12
2022-11-13T20:46:15.697Z,91.94
2022-11-13T20:48:42.672Z,92.14
2022-11-13T20:51:13.667Z,91.88
2022-11-13T20:53:41.186Z,92.27
2022-11-13T20:56:08.744Z,92.17
2022-11-13T20:58:35.673Z,92.06
2022-11-13T21:01:25.241Z,92.12
2022-11-13T21:03:52.680Z,92.11
2022-11-13T21:06:22.768Z,91.92
2022-11-13T21:08:49.591Z,92.00
2022-11-13T21:11:27.067Z,92.03
2022-11-13T21:13:55.345Z,92.19
2022-11-13T21:16:22.474Z,92.20
2022-11-13T21:18:49.212Z,92.14
2022-11-13T21:21:20.580Z,92.07
2022-11-13T21:23:48.182Z,91.85
2022-11-13T21:26:15.553Z,91.68
2022-11-13T21:28:42.080Z,91.75
2022-11-13T21:31:14.806Z,92.15
2022-11-13T21:33:43.607Z,92.17
2022-11-13T21:36:24.895Z,92.12
2022-11-13T21:38:53.412Z,92.53
2022-11-13T21:41:21.374Z,92.44
2022-11-13T21:43:49.793Z,92.24
2022-11-13T21:46:17.389Z,92.52
2022-11-13T21:48:44.910Z,92.93
2022-11-13T21:51:11.819Z,92.11
2022-11-13T21:53:39.072Z,92.24
2022-11-13T21:56:09.055Z,91.92
2022-11-13T21:58:40.649Z,91.78
2022-11-13T22:01:08.987Z,91.91
2022-11-13T22:03:35.582Z,92.22
2022-11-13T22:06:22.593Z,92.31
2022-11-13T22:08:59.913Z,92.39
2022-11-13T22:11:31.888Z,92.18
2022-11-13T22:13:59.113Z,92.23
2022-11-13T22:16:28.333Z,92.75
2022-11-13T22:18:57.322Z,92.29
2022-11-13T22:21:25.457Z,92.59
2022-11-13T22:23:52.555Z,92.65
2022-11-13T22:26:20.219Z,92.48
2022-11-13T22:28:47.953Z,92.31
2022-11-13T22:31:20.465Z,92.62
2022-11-13T22:33:50.537Z,92.52
2022-11-13T22:36:32.742Z,92.37
2022-11-13T22:39:00.293Z,92.38
2022-11-13T22:41:29.361Z,91.94
2022-11-13T22:43:59.664Z,92.12
2022-11-13T22:46:29.419Z,92.28
2022-11-13T22:48:57.283Z,92.17
2022-11-13T22:51:37.830Z,92.06
2022-11-13T22:54:07.268Z,91.80
2022-11-13T22:56:35.015Z,91.81
2022-11-13T22:59:03.325Z,92.05
2022-11-13T23:01:32.428Z,91.89
2022-11-13T23:04:01.022Z,92.05
2022-11-13T23:06:29.962Z,91.93
2022-11-13T23:08:57.049Z,92.02
2022-11-13T23:11:33.072Z,92.34
2022-11-13T23:14:02.258Z,92.19
2022-11-13T23:16:30.135Z,92.33
2022-11-13T23:18:58.228Z,92.33
2022-11-13T23:21:26.464Z,92.22
2022-11-13T23:23:54.202Z,92.44
2022-11-13T23:26:21.484Z,92.33
2022-11-13T23:28:48.587Z,92.51
2022-11-13T23:31:16.074Z,92.27
2022-11-13T23:33:42.819Z,92.34
2022-11-13T23:36:11.610Z,92.49
2022-11-13T23:38:38.891Z,92.31
2022-11-13T23:41:05.721Z,92.36
2022-11-13T23:44:06.573Z,92.33
2022-11-13T23:46:19.277Z,92.40
2022-11-13T23:48:45.989Z,92.17
2022-11-13T23:51:13.672Z,92.57
2022-11-13T23:53:40.258Z,92.21
2022-11-13T23:56:07.493Z,92.20
2022-11-13T23:58:34.461Z,92.08
